CheckWX is a tool to help pilots better visualize weather data.  It is not intended as a substitute for an official pre-flight weather briefing.

21:38:15 UTC

KVLD METAR
Valdosta Regional Airport
Valdosta, Georgia, USA
Current

45 mins ago

KVLD 142053Z VRB03KT 10SM CLR 33/22 A2998 RMK AO2 SLP157 T03330217 58010
Observed
Jul-14 @ 20:53 UTC
Wind
  • Variable at 3 KTS
Visibility
10 SM
Flight Rules
VFR
Cloud Levels
  • Clear skies
Temperature
33°C / 91°F
Dewpoint
22°C / 72°F
Humidity
52%
Altimeter
29.98" Hg
Pressure
1015.22 hPa
Previous

2 hours ago

KVLD 141953Z 34007KT 290V030 10SM SCT050 31/23 A3000 RMK AO2 LTG DSNT NE SLP166 T03110233
Observed
Jul-14 @ 19:53 UTC
Wind
  • 340° at 7 KTS
Visibility
10 SM
Flight Rules
VFR
Cloud Levels
  • Scattered at 5,000' AGL
Temperature
31°C / 88°F
Dewpoint
23°C / 73°F
Humidity
62%
Altimeter
30" Hg
Pressure
1015.92 hPa
Previous

3 hours ago

KVLD 141853Z VRB03KT 10SM FEW049 35/23 A2999 RMK AO2 LTG DSNT W AND NW SLP160 T03500228
Observed
Jul-14 @ 18:53 UTC
Wind
  • Variable at 3 KTS
Visibility
10 SM
Flight Rules
VFR
Cloud Levels
  • Few at 4,900' AGL
Temperature
35°C / 95°F
Dewpoint
23°C / 73°F
Humidity
50%
Altimeter
29.99" Hg
Pressure
1015.62 hPa